Time;durP1;ratioP1;P1;durP2;ratioP2;P2;SDS_P1;SDS_P2;PMS_P1;PMS_P2;Temp;Humidity;BMP_temperature;BMP_pressure;BME280_temperature;BME280_humidity;BME280_pressure;Samples;Min_cycle;Max_cycle;Signal;HPM_P1;HPM_P2
2022/08/15 04:03:05;;;;;;;6.43;1.10;;;23.60;64.60;;;;;;4895855;29;20080;-37
2022/08/15 04:05:31;;;;;;;8.85;1.48;;;23.50;64.40;;;;;;4892427;29;20040;-37
2022/08/15 04:07:56;;;;;;;24.70;2.55;;;23.60;64.60;;;;;;4895788;29;20057;-36
2022/08/15 04:10:22;;;;;;;4.85;1.10;;;23.60;65.20;;;;;;4893180;29;20033;-37
2022/08/15 04:12:48;;;;;;;5.25;1.00;;;23.50;65.00;;;;;;4889867;29;20476;-36
2022/08/15 04:15:15;;;;;;;3.47;0.95;;;23.50;65.00;;;;;;4894057;29;20033;-36
2022/08/15 04:17:42;;;;;;;6.65;1.20;;;23.50;65.00;;;;;;4896914;29;20056;-36
2022/08/15 04:20:10;;;;;;;6.70;0.77;;;23.40;65.30;;;;;;4892945;29;20696;-37
2022/08/15 04:22:39;;;;;;;3.63;1.00;;;23.50;65.40;;;;;;4897029;29;20076;-37
2022/08/15 04:25:18;;;;;;;5.03;0.80;;;23.50;65.80;;;;;;4896917;29;20036;-37
2022/08/15 04:27:46;;;;;;;0.80;0.53;;;23.50;65.70;;;;;;4894205;29;20032;-36
2022/08/15 04:30:12;;;;;;;3.10;1.00;;;23.50;65.60;;;;;;4896612;29;20700;-37
2022/08/15 04:32:39;;;;;;;1.05;0.70;;;23.40;65.90;;;;;;4897091;29;20059;-37
2022/08/15 04:35:08;;;;;;;2.65;0.77;;;23.50;66.20;;;;;;4897046;29;20052;-42
2022/08/15 04:42:03;;;;;;;1.20;0.82;;;23.50;67.20;;;;;;5146666;27;20117;-47
2022/08/15 04:44:29;;;;;;;4.15;0.80;;;23.70;65.80;;;;;;5147089;27;20388;-44
2022/08/15 04:46:55;;;;;;;1.45;0.90;;;23.70;65.60;;;;;;5145683;27;20450;-44
2022/08/15 04:49:20;;;;;;;1.83;0.70;;;23.60;65.60;;;;;;5148318;27;20015;-44
2022/08/15 04:51:46;;;;;;;3.25;1.00;;;23.60;65.70;;;;;;5149997;27;20030;-46
2022/08/15 04:54:12;;;;;;;6.97;1.45;;;23.60;65.80;;;;;;5140205;27;20023;-44
2022/08/15 04:56:38;;;;;;;2.08;0.98;;;23.60;66.20;;;;;;5135880;27;20466;-45
2022/08/15 04:59:03;;;;;;;3.53;0.90;;;23.50;66.20;;;;;;5135532;27;20023;-44
2022/08/15 05:01:29;;;;;;;6.30;0.85;;;23.50;66.30;;;;;;5143727;27;20086;-44
2022/08/15 05:03:55;;;;;;;3.00;0.80;;;23.50;66.40;;;;;;5135631;27;20393;-45
2022/08/15 05:06:21;;;;;;;3.28;1.00;;;23.50;66.50;;;;;;5136693;27;20033;-44
2022/08/15 05:08:47;;;;;;;2.08;1.08;;;23.50;66.50;;;;;;5113302;27;20012;-46
2022/08/15 05:11:18;;;;;;;4.05;0.90;;;23.50;66.50;;;;;;5142207;27;20034;-47
2022/08/15 05:13:44;;;;;;;4.80;0.98;;;23.50;66.50;;;;;;5150228;27;20109;-44
2022/08/15 05:16:10;;;;;;;1.88;0.80;;;23.50;66.50;;;;;;5149801;27;20027;-45
2022/08/15 05:18:39;;;;;;;1.88;0.90;;;23.50;66.50;;;;;;5150150;27;20027;-45
2022/08/15 05:21:07;;;;;;;1.85;0.77;;;23.50;66.70;;;;;;5150053;27;20074;-45
2022/08/15 05:23:33;;;;;;;2.50;0.70;;;23.50;66.80;;;;;;5150258;27;20019;-47
2022/08/15 05:26:00;;;;;;;1.60;0.52;;;23.50;67.70;;;;;;5150110;27;20122;-47
2022/08/15 05:28:26;;;;;;;2.33;0.70;;;23.50;66.90;;;;;;5149964;27;20019;-47
2022/08/15 05:30:54;;;;;;;0.88;0.68;;;23.50;67.00;;;;;;5149845;27;20038;-44
2022/08/15 05:33:22;;;;;;;1.45;1.10;;;23.40;67.00;;;;;;5149868;27;20038;-47
2022/08/15 05:35:53;;;;;;;1.33;0.70;;;23.50;67.00;;;;;;5149630;27;20023;-43
2022/08/15 05:38:35;;;;;;;1.52;1.17;;;23.50;67.10;;;;;;5149789;27;20367;-47
2022/08/15 05:41:06;;;;;;;0.70;0.70;;;23.50;67.10;;;;;;5138371;27;20148;-44
2022/08/15 05:44:01;;;;;;;3.03;0.80;;;23.50;67.10;;;;;;5149620;27;20026;-43
2022/08/15 05:46:27;;;;;;;2.17;0.95;;;23.50;67.30;;;;;;5149510;27;20047;-44
2022/08/15 05:49:17;;;;;;;0.73;0.55;;;23.50;67.40;;;;;;5139090;27;20050;-44
2022/08/15 05:51:52;;;;;;;11.52;0.90;;;23.50;67.70;;;;;;5145526;27;20026;-45
2022/08/15 05:54:44;;;;;;;0.93;0.73;;;23.50;68.60;;;;;;5135562;27;20058;-46
2022/08/15 05:57:21;;;;;;;0.85;0.70;;;23.50;67.90;;;;;;5115286;27;20023;-44
2022/08/15 05:59:51;;;;;;;1.95;1.02;;;23.50;67.90;;;;;;5117046;27;20019;-43
2022/08/15 06:03:00;;;;;;;1.52;0.80;;;23.50;67.90;;;;;;5116674;27;20131;-43
2022/08/15 06:05:34;;;;;;;2.03;0.90;;;23.50;67.90;;;;;;5033603;28;20304;-42
2022/08/15 06:08:05;;;;;;;1.65;0.93;;;23.50;67.80;;;;;;5046361;28;20490;-43
2022/08/15 06:10:41;;;;;;;1.77;0.80;;;23.50;67.90;;;;;;5094744;27;20031;-43
2022/08/15 06:13:15;;;;;;;3.60;0.80;;;23.50;68.00;;;;;;5135458;27;20144;-44
2022/08/15 06:16:17;;;;;;;1.42;0.60;;;23.60;68.00;;;;;;5135465;27;20079;-44
2022/08/15 06:18:45;;;;;;;2.65;0.70;;;23.60;67.90;;;;;;5132988;27;20019;-43
2022/08/15 06:21:22;;;;;;;3.67;0.70;;;23.60;67.90;;;;;;5135129;27;20035;-43
2022/08/15 06:23:55;;;;;;;3.13;0.70;;;23.60;67.80;;;;;;5133734;27;20555;-43
2022/08/15 06:26:39;;;;;;;1.63;0.80;;;23.60;67.70;;;;;;5125722;27;20031;-45
2022/08/15 06:29:08;;;;;;;1.52;0.73;;;23.60;67.70;;;;;;5120489;27;20035;-44
2022/08/15 06:31:40;;;;;;;1.38;0.73;;;23.70;67.80;;;;;;5134952;27;20088;-44
2022/08/15 06:34:37;;;;;;;6.50;0.93;;;23.70;67.90;;;;;;5120463;27;20027;-44
2022/08/15 06:37:19;;;;;;;3.47;1.05;;;23.70;67.90;;;;;;5134782;27;20027;-43
2022/08/15 06:40:03;;;;;;;4.35;0.82;;;23.70;67.90;;;;;;5134138;27;20351;-43
2022/08/15 06:42:33;;;;;;;1.05;0.68;;;23.70;67.90;;;;;;5134305;27;20033;-43
2022/08/15 06:45:04;;;;;;;2.28;0.85;;;23.70;67.80;;;;;;5134513;27;20500;-44
2022/08/15 06:47:29;;;;;;;1.20;0.60;;;23.70;67.80;;;;;;5134775;27;20031;-43
2022/08/15 06:50:01;;;;;;;1.83;0.80;;;23.70;67.80;;;;;;5120263;27;20027;-43
2022/08/15 06:52:29;;;;;;;1.58;0.80;;;23.70;67.80;;;;;;5134157;27;20034;-44
2022/08/15 06:54:55;;;;;;;2.38;0.70;;;23.70;67.80;;;;;;5130104;27;20133;-49
2022/08/15 06:57:37;;;;;;;1.00;0.68;;;23.70;67.80;;;;;;5124359;27;20151;-49
2022/08/15 07:00:33;;;;;;;1.75;1.00;;;23.70;67.80;;;;;;5133802;27;20055;-46
2022/08/15 07:03:20;;;;;;;1.42;0.70;;;23.70;67.80;;;;;;5122808;27;20060;-44
2022/08/15 07:05:50;;;;;;;3.20;0.70;;;23.70;67.90;;;;;;5134279;27;20018;-47
2022/08/15 07:08:15;;;;;;;1.17;0.70;;;23.70;67.80;;;;;;5134075;27;20027;-51
2022/08/15 07:10:46;;;;;;;2.22;0.60;;;23.70;67.80;;;;;;5134363;27;20098;-45
2022/08/15 07:13:16;;;;;;;2.30;0.93;;;23.80;67.90;;;;;;5116274;27;20126;-46
2022/08/15 07:16:11;;;;;;;3.42;0.90;;;23.80;68.10;;;;;;5129534;27;20052;-53
2022/08/15 07:18:39;;;;;;;3.25;0.90;;;23.70;68.30;;;;;;5125456;27;20027;-45
2022/08/15 07:21:17;;;;;;;2.20;0.80;;;23.80;68.50;;;;;;5123522;27;20082;-46
2022/08/15 07:24:06;;;;;;;3.92;0.70;;;23.70;68.60;;;;;;5122339;27;20093;-51
2022/08/15 07:26:41;;;;;;;1.85;0.90;;;23.80;68.90;;;;;;5126968;27;20033;-46
2022/08/15 07:29:24;;;;;;;1.58;0.73;;;23.70;68.90;;;;;;5133481;27;20104;-46
2022/08/15 07:31:58;;;;;;;5.63;0.88;;;23.80;69.10;;;;;;5133692;27;20532;-46
2022/08/15 07:34:24;;;;;;;4.15;0.80;;;23.80;69.10;;;;;;5133752;27;20079;-49
2022/08/15 07:37:02;;;;;;;1.27;0.80;;;23.80;69.10;;;;;;5133507;27;20522;-50
2022/08/15 07:39:38;;;;;;;4.50;1.02;;;23.80;69.10;;;;;;5133358;27;20029;-44
2022/08/15 07:42:42;;;;;;;2.40;1.10;;;23.80;69.00;;;;;;5133689;27;20141;-51
2022/08/15 07:45:37;;;;;;;1.95;0.82;;;23.80;69.00;;;;;;5118794;27;20028;-44
2022/08/15 07:48:23;;;;;;;3.65;0.75;;;23.80;68.90;;;;;;5129759;27;20024;-46
2022/08/15 07:51:01;;;;;;;1.77;0.55;;;23.80;68.90;;;;;;5125608;27;20023;-50
2022/08/15 07:53:27;;;;;;;3.50;0.80;;;23.80;68.90;;;;;;5118839;27;20102;-46
2022/08/15 07:56:10;;;;;;;1.63;0.82;;;23.80;68.80;;;;;;5133488;27;20052;-50
2022/08/15 07:58:36;;;;;;;1.20;0.88;;;23.80;68.80;;;;;;5132610;27;20030;-46
2022/08/15 08:01:23;;;;;;;4.25;0.98;;;23.80;68.90;;;;;;5132658;27;20371;-49
2022/08/15 08:03:58;;;;;;;3.88;0.80;;;23.80;68.80;;;;;;5133414;27;20172;-51
2022/08/15 08:06:25;;;;;;;0.60;0.57;;;23.80;69.50;;;;;;5131664;27;20058;-46
2022/08/15 08:08:56;;;;;;;4.18;0.77;;;23.80;68.60;;;;;;5133247;27;20042;-46
2022/08/15 08:11:38;;;;;;;4.00;0.77;;;23.80;68.60;;;;;;5133167;27;20027;-50
2022/08/15 08:14:13;;;;;;;0.70;0.60;;;23.80;68.60;;;;;;5112848;28;20028;-50
2022/08/15 08:16:52;;;;;;;2.45;0.93;;;23.90;68.60;;;;;;5113187;28;20091;-50
2022/08/15 08:19:26;;;;;;;1.63;0.70;;;23.90;68.60;;;;;;5133068;27;20102;-49
2022/08/15 08:22:27;;;;;;;1.38;0.63;;;23.90;68.50;;;;;;5126878;27;20482;-43
2022/08/15 08:25:08;;;;;;;0.70;0.50;;;23.90;68.50;;;;;;5100831;27;20031;-44
2022/08/15 08:27:57;;;;;;;2.50;0.60;;;23.90;68.50;;;;;;5132507;27;20057;-43
2022/08/15 08:30:26;;;;;;;1.60;0.60;;;24.00;68.50;;;;;;5132810;27;20015;-48
2022/08/15 08:32:59;;;;;;;5.13;1.50;;;23.90;68.40;;;;;;5132744;27;20023;-47
2022/08/15 08:35:33;;;;;;;1.10;0.55;;;23.90;68.40;;;;;;5132809;27;20027;-47
2022/08/15 08:38:20;;;;;;;2.15;0.93;;;24.00;68.50;;;;;;5132571;27;20035;-49
2022/08/15 08:44:01;;;;;;;3.30;0.50;;;24.00;68.50;;;;;;5122356;28;20042;-45
2022/08/15 08:46:48;;;;;;;1.75;0.80;;;24.00;68.60;;;;;;5124075;28;20011;-46
2022/08/15 08:49:30;;;;;;;0.90;0.60;;;24.00;68.70;;;;;;5113151;28;20064;-43
2022/08/15 08:52:03;;;;;;;2.40;0.70;;;24.00;68.70;;;;;;5119668;28;20144;-46
2022/08/15 08:55:04;;;;;;;1.00;0.60;;;24.00;68.80;;;;;;5132626;28;20378;-46
2022/08/15 08:57:40;;;;;;;2.03;0.80;;;24.00;68.90;;;;;;5129069;27;20161;-51
2022/08/15 09:00:17;;;;;;;5.07;0.55;;;24.00;68.90;;;;;;5132521;28;20039;-47
2022/08/15 09:02:57;;;;;;;1.10;0.60;;;24.00;69.00;;;;;;5132197;28;20398;-48
2022/08/15 09:05:51;;;;;;;1.85;0.70;;;24.00;69.20;;;;;;5132232;28;20469;-46
2022/08/15 09:08:24;;;;;;;3.55;0.63;;;24.00;69.30;;;;;;5128252;28;20023;-49
2022/08/15 09:10:54;;;;;;;1.58;0.77;;;24.00;69.30;;;;;;5132522;28;20046;-47
2022/08/15 09:13:35;;;;;;;2.58;1.02;;;24.00;69.40;;;;;;5125202;28;20430;-50
2022/08/15 09:16:07;;;;;;;3.42;0.60;;;24.10;69.40;;;;;;5132475;28;20028;-46
2022/08/15 09:19:14;;;;;;;1.35;0.70;;;24.10;69.70;;;;;;5122946;28;20375;-50
2022/08/15 09:21:42;;;;;;;1.50;0.63;;;24.10;69.70;;;;;;5114160;28;20394;-44
2022/08/15 09:24:09;;;;;;;1.02;0.80;;;24.00;69.90;;;;;;5111758;28;20043;-49
2022/08/15 09:26:53;;;;;;;2.30;0.73;;;24.10;70.00;;;;;;5130841;27;20019;-44
2022/08/15 09:29:32;;;;;;;1.25;0.80;;;24.10;70.20;;;;;;5123042;27;20029;-45
2022/08/15 09:31:58;;;;;;;5.85;1.23;;;24.10;70.60;;;;;;5119527;27;20023;-60
2022/08/15 09:35:04;;;;;;;2.30;0.85;;;24.10;71.40;;;;;;5131072;27;20493;-59
2022/08/15 09:37:44;;;;;;;1.00;0.80;;;24.20;70.60;;;;;;5089730;28;20016;-64
2022/08/15 09:40:54;;;;;;;2.83;0.80;;;24.20;70.40;;;;;;5090955;28;20105;-61
2022/08/15 09:43:25;;;;;;;4.13;1.30;;;24.30;70.60;;;;;;5127624;27;20038;-52
